.
WxDataArchive / Data Records for 2009-04-16
2009-04-15 April 2009 2009-04-17

Data Records for Thursday, 16 April 2009

Time	Temp	Chill	HIndex	Humid	Dewpt	 Wind 	HiWind	WindDir	Rain 	Barom 
-----	----	-----	------	-----	-----	------	------	-------	-----	----- 
00:00	40.5	40.5	40.5	91	38.1	0	0	---	0.00	30.304 
00:05	40.2	40.2	40.2	91	37.8	0	0	---	0.00	30.304 
00:10	39.9	39.9	39.9	91	37.5	0	0	---	0.00	30.304 
00:15	39.6	39.6	39.6	91	37.2	0	0	---	0.00	30.305 
00:20	39.5	39.5	39.5	91	37.1	0	0	---	0.00	30.305 
00:25	39.2	39.2	39.2	92	37.1	0	0	---	0.00	30.305 
00:30	38.9	38.9	38.9	92	36.8	0	0	---	0.00	30.308 
00:35	38.8	38.8	38.8	92	36.7	0	0	---	0.00	30.308 
00:40	38.5	38.5	38.5	92	36.4	0	0	---	0.00	30.308 
00:45	38.5	38.5	38.5	92	36.4	0	0	---	0.00	30.320 
00:50	38.5	38.5	38.5	92	36.4	0	0	---	0.00	30.320 
00:55	38.3	38.3	38.3	92	36.2	0	0	---	0.00	30.320 
01:00	38.2	38.2	38.2	92	36.1	0	0	---	0.00	30.326 
01:05	38.0	38.0	38.0	93	36.2	0	0	---	0.00	30.326 
01:10	37.9	37.9	37.9	93	36.1	0	0	---	0.00	30.326 
01:15	37.6	37.6	37.6	93	35.8	0	0	---	0.00	30.331 
01:20	37.5	37.5	37.5	93	35.7	0	0	---	0.00	30.331 
01:25	37.5	37.5	37.5	93	35.7	0	0	---	0.00	30.331 
01:30	37.5	37.5	37.5	93	35.7	0	0	---	0.00	30.333 
01:35	37.3	37.3	37.3	93	35.5	0	0	---	0.00	30.333 
01:40	37.2	37.2	37.2	93	35.4	0	0	---	0.00	30.333 
01:45	37.2	37.2	37.2	93	35.4	0	0	---	0.00	30.336 
01:50	37.0	37.0	37.0	93	35.2	0	0	---	0.00	30.336 
01:55	36.9	36.9	36.9	93	35.1	0	0	---	0.00	30.336 
02:00	36.8	36.8	36.8	93	35.0	0	0	---	0.00	30.336 
02:05	36.6	36.6	36.6	93	34.8	0	0	---	0.00	30.336 
02:10	36.6	36.6	36.6	93	34.8	0	0	---	0.00	30.336 
02:15	36.6	36.6	36.6	93	34.8	0	0	---	0.00	30.334 
02:20	36.6	36.6	36.6	93	34.8	0	0	---	0.00	30.334 
02:25	36.6	36.6	36.6	93	34.8	0	0	---	0.00	30.334 
02:30	36.6	36.6	36.6	93	34.8	0	0	---	0.00	30.335 
02:35	36.5	36.5	36.5	93	34.7	0	0	---	0.00	30.335 
02:40	36.5	36.5	36.5	93	34.7	0	0	---	0.00	30.335 
02:45	36.3	36.3	36.3	92	34.2	0	0	---	0.00	30.337 
02:50	36.2	36.2	36.2	92	34.1	0	0	---	0.00	30.337 
02:55	36.0	36.0	36.0	92	33.9	0	0	---	0.00	30.337 
03:00	35.9	35.9	35.9	91	33.5	0	0	---	0.00	30.338 
03:05	35.9	35.9	35.9	91	33.5	0	0	---	0.00	30.338 
03:10	35.8	35.8	35.8	91	33.4	0	0	---	0.00	30.338 
03:15	35.8	35.8	35.8	90	33.2	0	0	---	0.00	30.335 
03:20	35.6	35.6	35.6	90	33.0	0	0	---	0.00	30.335 
03:25	35.5	35.5	35.5	89	32.6	0	0	---	0.00	30.335 
03:30	35.3	35.3	35.3	89	32.4	0	0	---	0.00	30.335 
03:35	35.0	35.0	35.0	89	32.1	0	0	---	0.00	30.335 
03:40	34.9	34.9	34.9	89	32.0	0	0	---	0.00	30.335 
03:45	34.7	34.7	34.7	89	31.8	0	0	---	0.00	30.337 
03:50	34.4	34.4	34.4	89	31.5	0	0	---	0.00	30.337 
03:55	34.3	34.3	34.3	89	31.4	0	0	---	0.00	30.337 
04:00	34.1	34.1	34.1	89	31.2	0	0	---	0.00	30.344 
04:05	34.0	34.0	34.0	89	31.1	0	0	---	0.00	30.344 
04:10	33.8	33.8	33.8	89	30.9	0	0	---	0.00	30.344 
04:15	33.7	33.7	33.7	89	30.8	0	0	---	0.00	30.347 
04:20	33.7	33.7	33.7	90	31.1	0	0	---	0.00	30.347 
04:25	33.5	33.5	33.5	90	30.9	0	0	---	0.00	30.347 
04:30	33.5	33.5	33.5	90	30.9	0	0	---	0.00	30.350 
04:35	33.4	33.4	33.4	90	30.8	0	0	---	0.00	30.350 
04:40	33.2	33.2	33.2	90	30.6	0	0	---	0.00	30.350 
04:45	33.2	33.2	33.2	90	30.6	0	0	---	0.00	30.353 
04:50	33.2	33.2	33.2	91	30.9	0	0	---	0.00	30.353 
04:55	33.2	33.2	33.2	91	30.9	0	0	---	0.00	30.353 
05:00	33.1	33.1	33.1	91	30.8	0	0	---	0.00	30.357 
05:05	33.1	33.1	33.1	91	30.8	0	0	---	0.00	30.357 
05:10	33.1	33.1	33.1	91	30.8	0	0	---	0.00	30.357 
05:15	33.1	33.1	33.1	91	30.8	0	0	---	0.00	30.357 
05:20	32.9	32.9	32.9	91	30.6	0	0	---	0.00	30.357 
05:25	32.7	32.7	32.7	91	30.4	0	0	---	0.00	30.357 
05:30	32.5	32.5	32.5	91	30.2	0	0	---	0.00	30.363 
05:35	32.4	32.4	32.4	91	30.1	0	0	---	0.00	30.363 
05:40	32.4	32.4	32.4	92	30.3	0	0	---	0.00	30.363 
05:45	32.2	32.2	32.2	92	30.1	0	0	---	0.00	30.366 
05:50	32.2	32.2	32.2	92	30.1	0	0	---	0.00	30.366 
05:55	32.1	32.1	32.1	92	30.0	0	0	---	0.00	30.366 
06:00	32.1	32.1	32.1	92	30.0	0	0	---	0.00	30.369 
06:05	31.9	31.9	31.9	92	29.8	0	0	---	0.00	30.369 
06:10	31.8	31.8	31.8	92	29.7	0	0	---	0.00	30.369 
06:15	31.8	31.8	31.8	92	29.7	0	0	---	0.00	30.371 
06:20	31.5	31.5	31.5	92	29.4	0	0	---	0.00	30.371 
06:25	31.3	31.3	31.3	92	29.3	0	0	---	0.00	30.371 
06:30	31.2	31.2	31.2	92	29.2	0	0	---	0.00	30.378 
06:35	31.0	31.0	31.0	92	29.0	0	0	---	0.00	30.378 
06:40	31.0	31.0	31.0	92	29.0	0	0	---	0.00	30.378 
06:45	31.0	31.0	31.0	92	29.0	0	0	---	0.00	30.382 
06:50	31.0	31.0	31.0	92	29.0	0	0	---	0.00	30.382 
06:55	31.0	31.0	31.0	92	29.0	0	0	---	0.00	30.382 
07:00	31.0	31.0	31.0	92	29.0	0	0	---	0.00	30.388 
07:05	30.9	30.9	30.9	92	28.9	0	0	---	0.00	30.388 
07:10	30.9	30.9	30.9	93	29.1	0	0	---	0.00	30.388 
07:15	30.9	30.9	30.9	93	29.1	0	0	---	0.00	30.392 
07:20	30.9	30.9	30.9	93	29.1	0	0	---	0.00	30.392 
07:25	30.9	30.9	30.9	93	29.1	0	0	---	0.00	30.392 
07:30	31.0	31.0	31.0	93	29.2	0	0	---	0.00	30.401 
07:35	31.0	31.0	31.0	93	29.2	0	0	---	0.00	30.401 
07:40	31.2	31.2	31.2	93	29.4	0	0	---	0.00	30.401 
07:45	31.5	31.5	31.5	93	29.7	0	0	---	0.00	30.413 
07:50	31.8	31.8	31.8	94	30.3	0	0	---	0.00	30.413 
07:55	32.2	32.2	32.2	94	30.7	0	0	---	0.00	30.413 
08:00	32.8	32.8	32.8	94	31.3	0	0	---	0.00	30.416 
08:05	33.7	33.7	33.7	94	32.2	0	0	---	0.00	30.416 
08:10	35.3	35.3	35.3	96	34.3	0	0	---	0.00	30.416 
08:15	36.8	36.8	36.8	96	35.8	0	0	---	0.00	30.419 
08:20	37.6	37.6	37.6	95	36.3	0	0	---	0.00	30.419 
08:25	38.5	38.5	38.5	94	36.9	0	0	---	0.00	30.419 
08:30	39.3	39.3	39.3	91	36.9	0	0	---	0.00	30.418 
08:35	40.3	40.3	40.3	87	36.7	0	1	90	0.00	30.418 
08:40	41.1	41.1	41.1	82	36.0	0	0	---	0.00	30.418 
08:45	42.1	42.1	42.1	75	34.8	0	2	90	0.00	30.423 
08:50	43.1	43.1	43.1	66	32.5	0	2	90	0.00	30.423 
08:55	44.1	44.1	44.1	60	31.1	0	2	90	0.00	30.423 
09:00	44.8	44.8	44.8	57	30.5	1	3	112	0.00	30.424 
09:05	45.2	45.2	45.2	56	30.4	2	5	112	0.00	30.424 
09:10	45.5	45.5	45.5	57	31.2	1	4	112	0.00	30.424 
09:15	45.7	45.7	45.7	57	31.3	1	3	0	0.00	30.429 
09:20	46.1	46.1	46.1	54	30.4	1	5	90	0.00	30.429 
09:25	46.4	46.4	46.4	54	30.7	2	5	90	0.00	30.429 
09:30	46.7	46.7	46.7	53	30.5	2	5	90	0.00	30.437 
09:35	47.0	47.0	47.0	53	30.8	1	5	112	0.00	30.437 
09:40	47.4	47.4	47.4	50	29.7	2	6	112	0.00	30.437 
09:45	47.9	47.9	47.9	50	30.2	2	6	90	0.00	30.438 
09:50	48.2	48.2	48.2	49	29.9	2	5	112	0.00	30.438 
09:55	48.6	48.6	48.6	53	32.3	2	4	112	0.00	30.438 
10:00	48.8	48.8	48.8	53	32.4	1	4	45	0.00	30.442 
10:05	49.1	49.1	49.1	50	31.3	3	6	112	0.00	30.442 
10:10	49.2	49.2	49.2	50	31.4	2	4	112	0.00	30.442 
10:15	49.6	49.6	49.6	51	32.2	2	5	112	0.00	30.449 
10:20	49.9	49.9	49.9	50	32.0	2	6	112	0.00	30.449 
10:25	49.6	49.6	49.6	52	32.7	3	5	90	0.00	30.449 
10:30	49.8	49.8	49.8	50	31.9	3	5	90	0.00	30.449 
10:35	50.2	50.2	50.2	51	32.8	2	5	112	0.00	30.449 
10:40	50.7	50.7	50.7	51	33.2	2	4	90	0.00	30.449 
10:45	51.0	51.0	51.0	50	33.0	2	6	90	0.00	30.450 
10:50	51.4	51.4	51.4	53	34.8	1	3	112	0.00	30.450 
10:55	51.9	51.9	51.9	52	34.8	2	5	90	0.00	30.450 
11:00	52.2	52.2	52.2	50	34.1	2	4	90	0.00	30.448 
11:05	52.5	52.5	52.5	50	34.4	2	4	112	0.00	30.448 
11:10	52.8	52.8	52.8	47	33.1	3	6	90	0.00	30.448 
11:15	53.1	53.1	53.1	53	36.4	2	4	90	0.00	30.452 
11:20	53.6	53.6	53.6	50	35.4	1	5	112	0.00	30.452 
11:25	54.1	54.1	54.1	50	35.9	2	5	112	0.00	30.452 
11:30	54.5	54.5	54.5	52	37.2	1	4	112	0.00	30.453 
11:35	55.0	55.0	55.0	51	37.2	1	3	112	0.00	30.453 
11:40	55.4	55.4	55.4	54	39.0	1	4	90	0.00	30.453 
11:45	55.7	55.7	55.7	51	37.9	1	4	112	0.00	30.452 
11:50	55.9	55.9	55.9	51	38.0	2	4	68	0.00	30.452 
11:55	56.5	56.5	56.5	52	39.1	1	2	90	0.00	30.452 
12:00	56.7	56.7	56.7	44	35.0	1	4	112	0.00	30.451 
12:05	56.9	56.9	56.9	48	37.4	2	5	112	0.00	30.451 
12:10	57.0	57.0	57.0	49	38.0	1	5	112	0.00	30.451 
12:15	57.2	57.2	57.2	46	36.6	2	6	112	0.00	30.454 
12:20	57.0	57.0	57.0	45	35.9	2	4	112	0.00	30.454 
12:25	57.3	57.3	57.3	41	33.8	2	6	112	0.00	30.454 
12:30	57.3	57.3	57.3	36	30.6	2	7	112	0.00	30.454 
12:35	57.5	57.5	57.5	41	34.0	3	7	112	0.00	30.454 
12:40	57.8	57.8	57.8	42	34.9	3	6	90	0.00	30.454 
12:45	58.0	58.0	58.0	38	32.5	2	5	68	0.00	30.450 
12:50	58.4	58.4	58.4	34	30.1	3	7	112	0.00	30.450 
12:55	58.4	58.4	58.4	38	32.9	1	6	112	0.00	30.450 
13:00	58.7	58.7	58.7	37	32.5	2	5	112	0.00	30.446 
13:05	58.9	58.9	58.9	34	30.6	2	6	112	0.00	30.446 
13:10	58.9	58.9	58.9	39	34.0	2	6	90	0.00	30.446 
13:15	59.2	59.2	59.2	38	33.6	2	5	68	0.00	30.446 
13:20	59.0	59.0	59.0	36	32.1	2	6	90	0.00	30.446 
13:25	59.2	59.2	59.2	37	32.9	1	4	90	0.00	30.446 
13:30	59.2	59.2	59.2	34	30.8	3	7	90	0.00	30.444 
13:35	59.3	59.3	59.3	34	30.9	1	4	68	0.00	30.444 
13:40	59.8	59.8	59.8	38	34.1	1	4	68	0.00	30.444 
13:45	59.9	59.9	59.9	34	31.5	2	7	112	0.00	30.439 
13:50	60.1	60.1	60.1	33	30.9	1	6	112	0.00	30.439 
13:55	60.5	60.5	60.5	36	33.4	1	3	22	0.00	30.439 
14:00	60.5	60.5	60.5	32	30.5	2	5	112	0.00	30.434 
14:05	60.4	60.4	60.4	32	30.4	2	4	112	0.00	30.434 
14:10	60.2	60.2	60.2	33	31.0	3	6	90	0.00	30.434 
14:15	59.9	59.9	59.9	33	30.7	2	5	112	0.00	30.436 
14:20	60.2	60.2	60.2	37	33.8	1	3	112	0.00	30.436 
14:25	60.5	60.5	60.5	38	34.8	2	5	112	0.00	30.436 
14:30	60.7	60.7	60.7	32	30.7	1	3	68	0.00	30.433 
14:35	60.5	60.5	60.5	34	32.0	3	6	112	0.00	30.433 
14:40	60.4	60.4	60.4	35	32.6	2	5	112	0.00	30.433 
14:45	60.5	60.5	60.5	31	29.7	3	7	112	0.00	30.431 
14:50	60.5	60.5	60.5	33	31.3	4	10	90	0.00	30.431 
14:55	60.7	60.7	60.7	34	32.2	2	6	112	0.00	30.431 
15:00	61.2	61.2	61.2	31	30.3	2	6	112	0.00	30.429 
15:05	61.5	61.5	61.5	30	29.8	3	10	112	0.00	30.429 
15:10	61.5	61.5	61.5	32	31.4	2	7	68	0.00	30.429 
15:15	61.8	61.8	61.8	34	33.1	2	7	90	0.00	30.421 
15:20	62.3	62.3	62.3	33	32.8	2	6	112	0.00	30.421 
15:25	62.4	62.4	62.4	33	32.9	1	5	112	0.00	30.421 
15:30	62.1	62.1	62.1	31	31.1	4	8	112	0.00	30.417 
15:35	62.0	62.0	62.0	30	30.2	3	7	90	0.00	30.417 
15:40	61.8	61.8	61.8	31	30.8	3	9	90	0.00	30.417 
15:45	62.0	62.0	62.0	33	32.6	2	6	45	0.00	30.411 
15:50	62.4	62.4	62.4	36	35.1	1	3	22	0.00	30.411 
15:55	62.4	62.4	62.4	31	31.4	2	8	112	0.00	30.411 
16:00	62.1	62.1	62.1	29	29.5	3	9	90	0.00	30.405 
16:05	62.1	62.1	62.1	28	28.6	3	6	112	0.00	30.405 
16:10	62.0	62.0	62.0	31	31.0	1	5	112	0.00	30.405 
16:15	62.3	62.3	62.3	31	31.3	2	7	112	0.00	30.404 
16:20	62.4	62.4	62.4	33	32.9	2	6	112	0.00	30.404 
16:25	62.9	62.9	62.9	31	31.8	1	4	45	0.00	30.404 
16:30	62.9	62.9	62.9	32	32.6	2	7	112	0.00	30.403 
16:35	62.1	62.1	62.1	33	32.7	3	7	112	0.00	30.403 
16:40	62.4	62.4	62.4	34	33.7	1	6	22	0.00	30.403 
16:45	62.6	62.6	62.6	31	31.5	3	7	112	0.00	30.403 
16:50	62.6	62.6	62.6	27	28.2	2	5	112	0.00	30.403 
16:55	62.6	62.6	62.6	27	28.2	1	4	112	0.00	30.403 
17:00	62.4	62.4	62.4	28	28.9	3	7	112	0.00	30.402 
17:05	62.3	62.3	62.3	31	31.3	1	4	112	0.00	30.402 
17:10	62.3	62.3	62.3	31	31.3	3	7	112	0.00	30.402 
17:15	62.1	62.1	62.1	32	31.9	3	9	112	0.00	30.402 
17:20	62.0	62.0	62.0	29	29.4	4	7	90	0.00	30.402 
17:25	62.0	62.0	62.0	33	32.6	1	3	90	0.00	30.402 
17:30	62.3	62.3	62.3	33	32.8	2	6	90	0.00	30.400 
17:35	62.4	62.4	62.4	31	31.4	3	7	112	0.00	30.400 
17:40	62.6	62.6	62.6	30	30.7	1	4	45	0.00	30.400 
17:45	62.6	62.6	62.6	29	29.9	2	6	112	0.00	30.404 
17:50	62.4	62.4	62.4	31	31.4	2	9	90	0.00	30.404 
17:55	62.3	62.3	62.3	28	28.8	2	5	112	0.00	30.404 
18:00	62.1	62.1	62.1	29	29.5	3	6	112	0.00	30.403 
18:05	61.8	61.8	61.8	30	30.0	3	9	90	0.00	30.403 
18:10	62.0	62.0	62.0	31	31.0	1	4	112	0.00	30.403 
18:15	62.0	62.0	62.0	31	31.0	2	4	112	0.00	30.406 
18:20	61.8	61.8	61.8	31	30.8	1	4	112	0.00	30.406 
18:25	61.8	61.8	61.8	29	29.2	3	7	112	0.00	30.406 
18:30	61.6	61.6	61.6	28	28.2	2	6	112	0.00	30.405 
18:35	61.6	61.6	61.6	31	30.7	1	3	90	0.00	30.405 
18:40	61.6	61.6	61.6	29	29.0	2	7	90	0.00	30.405 
18:45	61.5	61.5	61.5	30	29.8	2	6	112	0.00	30.406 
18:50	61.5	61.5	61.5	31	30.6	1	3	68	0.00	30.406 
18:55	61.3	61.3	61.3	30	29.6	2	5	112	0.00	30.406 
19:00	61.2	61.2	61.2	31	30.3	2	4	112	0.00	30.406 
19:05	61.0	61.0	61.0	32	30.9	1	4	112	0.00	30.406 
19:10	60.9	60.9	60.9	31	30.1	2	4	90	0.00	30.406 
19:15	60.7	60.7	60.7	31	29.9	2	4	90	0.00	30.404 
19:20	60.5	60.5	60.5	32	30.5	1	3	112	0.00	30.404 
19:25	60.4	60.4	60.4	32	30.4	2	4	112	0.00	30.404 
19:30	60.4	60.4	60.4	32	30.4	1	3	112	0.00	30.405 
19:35	60.2	60.2	60.2	34	31.7	2	4	90	0.00	30.405 
19:40	59.9	59.9	59.9	34	31.5	2	3	90	0.00	30.405 
19:45	59.8	59.8	59.8	35	32.1	1	3	90	0.00	30.405 
19:50	59.6	59.6	59.6	35	31.9	1	3	90	0.00	30.405 
19:55	59.3	59.3	59.3	36	32.4	1	2	112	0.00	30.405 
20:00	59.0	59.0	59.0	38	33.4	0	1	112	0.00	30.402 
20:05	58.7	58.7	58.7	38	33.2	0	1	112	0.00	30.402 
20:10	58.4	58.4	58.4	39	33.5	0	0	---	0.00	30.402 
20:15	57.8	57.8	57.8	39	33.0	0	0	---	0.00	30.396 
20:20	57.2	57.2	57.2	39	32.5	0	0	---	0.00	30.396 
20:25	56.6	56.6	56.6	40	32.6	0	0	---	0.00	30.396 
20:30	55.9	55.9	55.9	41	32.5	0	0	---	0.00	30.399 
20:35	55.3	55.3	55.3	43	33.2	0	0	---	0.00	30.399 
20:40	54.7	54.7	54.7	44	33.2	0	0	---	0.00	30.399 
20:45	54.1	54.1	54.1	46	33.8	0	0	---	0.00	30.402 
20:50	53.5	53.5	53.5	46	33.2	0	0	---	0.00	30.402 
20:55	52.8	52.8	52.8	47	33.1	0	0	---	0.00	30.402 
21:00	52.2	52.2	52.2	49	33.6	0	0	---	0.00	30.404 
21:05	51.7	51.7	51.7	49	33.2	0	0	---	0.00	30.404 
21:10	51.1	51.1	51.1	50	33.1	0	0	---	0.00	30.404 
21:15	50.5	50.5	50.5	52	33.5	0	0	---	0.00	30.401 
21:20	49.9	49.9	49.9	54	33.9	0	0	---	0.00	30.401 
21:25	49.5	49.5	49.5	55	34.0	0	0	---	0.00	30.401 
21:30	49.1	49.1	49.1	56	34.1	0	0	---	0.00	30.404 
21:35	48.6	48.6	48.6	57	34.1	0	0	---	0.00	30.404 
21:40	48.3	48.3	48.3	58	34.2	0	0	---	0.00	30.404 
21:45	48.0	48.0	48.0	58	33.9	0	0	---	0.00	30.407 
21:50	47.6	47.6	47.6	58	33.6	0	0	---	0.00	30.407 
21:55	47.4	47.4	47.4	58	33.4	0	0	---	0.00	30.407 
22:00	47.3	47.3	47.3	61	34.5	0	0	---	0.00	30.407 
22:05	47.1	47.1	47.1	62	34.8	0	0	---	0.00	30.407 
22:10	46.8	46.8	46.8	61	34.1	0	0	---	0.00	30.407 
22:15	46.5	46.5	46.5	62	34.2	0	0	---	0.00	30.410 
22:20	46.1	46.1	46.1	63	34.2	0	0	---	0.00	30.410 
22:25	45.8	45.8	45.8	64	34.3	0	0	---	0.00	30.410 
22:30	45.5	45.5	45.5	63	33.6	0	0	---	0.00	30.410 
22:35	45.2	45.2	45.2	65	34.1	0	0	---	0.00	30.410 
22:40	44.9	44.9	44.9	65	33.9	0	0	---	0.00	30.410 
22:45	44.6	44.6	44.6	66	34.0	0	0	---	0.00	30.411 
22:50	44.3	44.3	44.3	67	34.0	0	0	---	0.00	30.411 
22:55	44.1	44.1	44.1	67	33.9	0	0	---	0.00	30.411 
23:00	43.8	43.8	43.8	68	33.9	0	0	---	0.00	30.412 
23:05	43.8	43.8	43.8	70	34.7	0	0	---	0.00	30.412 
23:10	43.6	43.6	43.6	70	34.5	0	0	---	0.00	30.412 
23:15	43.3	43.3	43.3	70	34.2	0	0	---	0.00	30.408 
23:20	43.1	43.1	43.1	71	34.3	0	0	---	0.00	30.408 
23:25	42.9	42.9	42.9	71	34.2	0	0	---	0.00	30.408 
23:30	42.6	42.6	42.6	72	34.2	0	0	---	0.00	30.410 
23:35	42.3	42.3	42.3	73	34.3	0	0	---	0.00	30.410 
23:40	42.3	42.3	42.3	74	34.6	0	0	---	0.00	30.410 
23:45	42.2	42.2	42.2	74	34.5	0	0	---	0.00	30.411 
23:50	41.9	41.9	41.9	75	34.6	0	0	---	0.00	30.411 
23:55	41.9	41.9	41.9	77	35.2	0	0	---	0.00	30.411 

CoCoRaHS
IN-AL-39
A2 Web Hosting
Creative Commons License
GoDaddy
search engine by freefind advanced

loaded 2018-11-14 03:32:15 • last modified 2010-11-18 10:43:29
Privacy PolicyDisclaimer
• wx.awcolley.com is powered by PmWiki v.2002016 •
• all content (unless otherwise noted) © 2018 A W Colley